createdAt,value
2023-03-18T00:00:15.430Z,7.37
2023-03-18T00:03:03.282Z,10.00
2023-03-18T00:05:50.526Z,9.48
2023-03-18T00:08:39.257Z,11.55
2023-03-18T00:11:27.226Z,8.85
2023-03-18T00:14:15.358Z,12.10
2023-03-18T00:17:02.823Z,7.12
2023-03-18T00:19:50.233Z,6.45
2023-03-18T00:22:39.853Z,5.05
2023-03-18T00:25:28.138Z,7.30
2023-03-18T00:28:18.447Z,10.88
2023-03-18T00:31:08.979Z,9.55
2023-03-18T00:33:56.643Z,11.65
2023-03-18T00:36:45.615Z,9.33
2023-03-18T00:39:33.104Z,7.50
2023-03-18T00:42:20.070Z,5.78
2023-03-18T00:45:10.286Z,8.15
2023-03-18T00:47:57.702Z,7.95
2023-03-18T00:50:45.552Z,7.97
2023-03-18T00:53:32.848Z,8.83
2023-03-18T00:56:23.008Z,8.33
2023-03-18T00:59:10.225Z,4.97
2023-03-18T01:01:58.346Z,8.20
2023-03-18T01:04:45.855Z,7.87
2023-03-18T01:07:33.350Z,6.40
2023-03-18T01:10:23.248Z,6.55
2023-03-18T01:13:10.771Z,10.85
2023-03-18T01:15:58.426Z,10.28
2023-03-18T01:18:46.569Z,6.10
2023-03-18T01:21:34.530Z,6.17
2023-03-18T01:24:22.373Z,7.62
2023-03-18T01:27:09.579Z,12.30
2023-03-18T01:29:56.823Z,4.58
2023-03-18T01:32:44.688Z,6.85
2023-03-18T01:35:35.707Z,10.28
2023-03-18T01:38:23.962Z,10.98
2023-03-18T01:41:12.257Z,11.85
2023-03-18T01:43:59.687Z,7.85
2023-03-18T01:46:48.510Z,8.95
2023-03-18T01:49:39.106Z,9.25
2023-03-18T01:52:29.282Z,7.72
2023-03-18T01:55:22.003Z,9.68
2023-03-18T01:58:15.055Z,10.78
2023-03-18T02:01:11.779Z,10.82
2023-03-18T02:04:00.375Z,10.05
2023-03-18T02:06:47.548Z,12.90
2023-03-18T02:09:34.842Z,8.55
2023-03-18T02:12:28.068Z,10.15
2023-03-18T02:15:18.590Z,9.83
2023-03-18T02:18:12.576Z,11.15
2023-03-18T02:21:20.766Z,9.35
2023-03-18T02:24:25.522Z,12.65
2023-03-18T02:27:21.802Z,7.50
2023-03-18T02:30:14.756Z,11.20
2023-03-18T02:33:02.838Z,8.38
2023-03-18T02:35:53.383Z,9.43
2023-03-18T02:38:45.342Z,11.75
2023-03-18T02:41:35.741Z,17.00
2023-03-18T02:44:23.769Z,10.18
2023-03-18T02:47:14.251Z,13.08
2023-03-18T02:50:01.465Z,14.65
2023-03-18T02:52:48.842Z,11.68
2023-03-18T02:55:35.918Z,14.20
2023-03-18T02:58:23.497Z,11.40
2023-03-18T03:01:11.340Z,13.10
2023-03-18T03:03:58.675Z,12.90
2023-03-18T03:06:46.314Z,15.98
2023-03-18T03:09:33.584Z,13.08
2023-03-18T03:12:21.439Z,15.48
2023-03-18T03:15:09.821Z,12.78
2023-03-18T03:17:56.828Z,16.93
2023-03-18T03:20:45.532Z,17.40
2023-03-18T03:23:32.933Z,16.80
2023-03-18T03:26:20.520Z,16.48
2023-03-18T03:29:07.857Z,16.20
2023-03-18T03:31:55.697Z,18.60
2023-03-18T03:34:43.316Z,16.20
2023-03-18T03:37:30.813Z,17.82
2023-03-18T03:40:20.399Z,18.40
2023-03-18T03:43:08.347Z,18.77
2023-03-18T03:45:55.627Z,18.80
2023-03-18T03:48:42.943Z,17.20
2023-03-18T03:51:30.175Z,16.57
2023-03-18T03:54:17.872Z,19.60
2023-03-18T03:57:05.312Z,18.85
2023-03-18T03:59:52.563Z,18.48
2023-03-18T04:02:40.745Z,19.65
2023-03-18T04:05:28.130Z,20.12
2023-03-18T04:08:15.237Z,23.38
2023-03-18T04:11:04.528Z,26.33
2023-03-18T04:13:53.672Z,25.15
2023-03-18T04:16:40.760Z,26.00
2023-03-18T04:19:28.980Z,24.50
2023-03-18T04:22:16.532Z,25.02
2023-03-18T04:25:04.745Z,28.05
2023-03-18T04:27:52.729Z,24.65
2023-03-18T04:30:39.991Z,25.35
2023-03-18T04:33:27.773Z,20.50
2023-03-18T04:36:15.475Z,20.97
2023-03-18T04:39:03.593Z,24.18
2023-03-18T04:41:51.293Z,24.67
2023-03-18T04:44:38.571Z,23.67
2023-03-18T04:47:26.109Z,23.25
2023-03-18T04:50:14.526Z,23.77
2023-03-18T04:53:02.019Z,23.65
2023-03-18T04:55:51.801Z,27.35
2023-03-18T04:58:39.482Z,25.55
2023-03-18T05:01:26.936Z,24.57
2023-03-18T05:04:14.231Z,29.42
2023-03-18T05:07:01.793Z,25.80
2023-03-18T05:09:49.179Z,26.95
2023-03-18T05:12:37.352Z,26.97
2023-03-18T05:15:25.079Z,26.62
2023-03-18T05:18:13.168Z,24.65
2023-03-18T05:21:00.594Z,23.73
2023-03-18T05:23:47.812Z,26.73
2023-03-18T05:26:35.986Z,27.62
2023-03-18T05:29:23.955Z,23.70
2023-03-18T05:32:12.605Z,23.32
2023-03-18T05:34:59.571Z,19.90
2023-03-18T05:37:47.142Z,22.85
2023-03-18T05:40:34.884Z,28.62
2023-03-18T05:43:23.178Z,19.95
2023-03-18T05:46:10.543Z,24.05
2023-03-18T05:48:57.625Z,21.68
2023-03-18T05:51:44.725Z,20.40
2023-03-18T05:54:31.822Z,21.45
2023-03-18T05:57:19.141Z,19.17
2023-03-18T06:00:08.234Z,20.68
2023-03-18T06:02:57.044Z,20.60
2023-03-18T06:05:44.107Z,17.80
2023-03-18T06:08:31.702Z,16.97
2023-03-18T06:11:19.058Z,13.72
2023-03-18T06:14:07.294Z,17.57
2023-03-18T06:16:55.436Z,21.20
2023-03-18T06:19:42.653Z,17.67
2023-03-18T06:22:31.657Z,18.52
2023-03-18T06:25:21.072Z,12.75
2023-03-18T06:28:08.554Z,14.40
2023-03-18T06:30:59.486Z,17.90
2023-03-18T06:33:47.298Z,19.87
2023-03-18T06:36:34.498Z,12.15
2023-03-18T06:39:22.018Z,19.00
2023-03-18T06:42:10.238Z,11.18
2023-03-18T06:44:57.286Z,12.88
2023-03-18T06:47:46.452Z,14.45
2023-03-18T06:50:34.414Z,11.85
2023-03-18T06:53:21.884Z,10.40
2023-03-18T06:56:09.825Z,14.80
2023-03-18T06:58:58.124Z,11.00
2023-03-18T07:01:45.234Z,15.45
2023-03-18T07:04:33.692Z,15.43
2023-03-18T07:07:22.197Z,15.85
2023-03-18T07:10:12.069Z,14.58
2023-03-18T07:13:00.179Z,19.62
2023-03-18T07:15:47.743Z,13.60
2023-03-18T07:18:35.169Z,16.62
2023-03-18T07:21:22.489Z,18.82
2023-03-18T07:24:11.120Z,16.05
2023-03-18T07:26:58.859Z,19.37
2023-03-18T07:29:46.398Z,13.30
2023-03-18T07:32:35.186Z,11.05
2023-03-18T07:35:23.647Z,17.52
2023-03-18T07:38:12.342Z,21.15
2023-03-18T07:40:59.684Z,14.23
2023-03-18T07:43:48.218Z,15.65
2023-03-18T07:46:35.981Z,18.60
2023-03-18T07:49:23.819Z,17.50
2023-03-18T07:52:11.161Z,15.72
2023-03-18T07:54:58.209Z,12.68
2023-03-18T07:57:45.541Z,15.00
2023-03-18T08:00:33.404Z,12.40
2023-03-18T08:03:20.662Z,17.32
2023-03-18T08:06:08.269Z,13.48
2023-03-18T08:08:56.302Z,13.58
2023-03-18T08:11:43.138Z,15.13
2023-03-18T08:14:31.079Z,18.17
2023-03-18T08:17:18.331Z,16.25
2023-03-18T08:20:08.039Z,14.50
2023-03-18T08:22:56.131Z,22.50
2023-03-18T08:25:43.939Z,17.02
2023-03-18T08:28:31.313Z,15.10
2023-03-18T08:31:18.845Z,20.65
2023-03-18T08:34:06.866Z,14.55
2023-03-18T08:36:54.092Z,12.70
2023-03-18T08:39:44.907Z,12.80
2023-03-18T08:42:32.160Z,15.90
2023-03-18T08:45:20.159Z,16.87
2023-03-18T08:48:07.577Z,13.58
2023-03-18T08:50:55.350Z,13.60
2023-03-18T08:53:42.616Z,12.00
2023-03-18T08:56:29.697Z,12.03
2023-03-18T08:59:17.734Z,12.60
2023-03-18T09:02:05.767Z,14.70
2023-03-18T09:04:55.036Z,19.23
2023-03-18T09:07:42.439Z,10.88
2023-03-18T09:10:30.240Z,12.28
2023-03-18T09:13:17.574Z,10.60
2023-03-18T09:16:05.268Z,7.62
2023-03-18T09:18:52.146Z,8.48
2023-03-18T09:21:39.496Z,10.25
2023-03-18T09:24:26.945Z,10.08
2023-03-18T09:27:14.118Z,6.83
2023-03-18T09:30:01.542Z,10.80
2023-03-18T09:32:48.853Z,12.25
2023-03-18T09:35:38.060Z,7.83
2023-03-18T09:38:25.515Z,7.90
2023-03-18T09:41:24.491Z,6.62
2023-03-18T09:44:14.612Z,7.28
2023-03-18T09:47:13.589Z,7.25
2023-03-18T09:50:27.987Z,5.47
2023-03-18T09:53:23.601Z,7.33
2023-03-18T09:56:16.723Z,5.87
2023-03-18T09:59:07.437Z,11.90
2023-03-18T10:01:56.879Z,7.83
2023-03-18T10:04:51.060Z,7.67
2023-03-18T10:07:42.805Z,6.22
2023-03-18T10:10:33.109Z,6.65
2023-03-18T10:13:31.944Z,7.83
2023-03-18T10:16:22.561Z,6.72
2023-03-18T10:19:10.152Z,5.20
2023-03-18T10:22:06.291Z,5.25
2023-03-18T10:25:03.340Z,8.43
2023-03-18T10:28:03.311Z,6.22
2023-03-18T10:31:25.722Z,6.62
2023-03-18T10:34:22.578Z,6.20
2023-03-18T10:37:37.325Z,8.43
2023-03-18T10:40:25.947Z,10.48
2023-03-18T10:43:25.063Z,7.17
2023-03-18T10:46:15.258Z,7.65
2023-03-18T10:49:08.523Z,6.03
2023-03-18T10:52:06.071Z,8.70
2023-03-18T10:54:54.148Z,9.03
2023-03-18T10:57:41.370Z,9.58
2023-03-18T11:00:34.385Z,5.20
2023-03-18T11:03:30.724Z,9.00
2023-03-18T11:06:25.399Z,7.10
2023-03-18T11:09:15.733Z,6.33
2023-03-18T11:12:08.068Z,5.75
2023-03-18T11:14:56.271Z,8.73
2023-03-18T11:17:44.020Z,6.97
2023-03-18T11:20:47.480Z,6.28
2023-03-18T11:23:52.361Z,8.58
2023-03-18T11:26:48.543Z,4.42
2023-03-18T11:29:36.758Z,4.25
2023-03-18T11:32:32.532Z,8.08
2023-03-18T11:35:23.349Z,8.53
2023-03-18T11:38:21.888Z,5.97
2023-03-18T11:41:11.773Z,6.60
2023-03-18T11:44:01.689Z,6.60
2023-03-18T11:46:54.683Z,7.37
2023-03-18T11:49:43.789Z,4.60
2023-03-18T11:52:45.135Z,6.33
2023-03-18T11:55:44.107Z,6.03
2023-03-18T11:58:46.674Z,5.50
2023-03-18T12:01:46.747Z,3.58
2023-03-18T12:04:39.732Z,3.70
2023-03-18T12:07:38.037Z,4.10
2023-03-18T12:10:38.928Z,4.47
2023-03-18T12:13:37.867Z,5.28
2023-03-18T12:16:50.468Z,5.67
2023-03-18T12:19:43.319Z,5.58
2023-03-18T12:22:39.151Z,3.12
2023-03-18T12:25:38.305Z,5.65
2023-03-18T12:28:31.606Z,5.40
2023-03-18T12:31:31.472Z,4.62
2023-03-18T12:34:24.199Z,4.50
2023-03-18T12:37:24.719Z,4.47
2023-03-18T12:40:46.988Z,7.87
2023-03-18T12:43:55.622Z,3.75
2023-03-18T12:46:45.631Z,5.65
2023-03-18T12:49:41.730Z,6.72
2023-03-18T12:52:44.224Z,6.58
2023-03-18T12:55:37.468Z,3.10
2023-03-18T12:58:27.798Z,3.92
2023-03-18T13:01:18.580Z,4.03
2023-03-18T13:04:09.002Z,3.20
2023-03-18T13:07:05.731Z,3.50
2023-03-18T13:09:59.734Z,3.30
2023-03-18T13:12:49.640Z,3.92
2023-03-18T13:15:42.809Z,9.95
2023-03-18T13:18:44.688Z,5.65
2023-03-18T13:21:34.191Z,3.12
2023-03-18T13:24:39.749Z,4.78
2023-03-18T13:27:48.685Z,3.65
2023-03-18T13:30:39.264Z,3.17
2023-03-18T13:33:45.513Z,6.62
2023-03-18T13:36:51.054Z,2.73
2023-03-18T13:39:43.747Z,5.15
2023-03-18T13:42:33.962Z,3.75
2023-03-18T13:45:30.559Z,4.75
2023-03-18T13:48:20.801Z,3.47
2023-03-18T13:51:23.409Z,4.65
2023-03-18T13:54:20.646Z,5.05
2023-03-18T13:57:24.788Z,5.20
2023-03-18T14:00:20.786Z,6.50
2023-03-18T14:03:33.589Z,4.85
2023-03-18T14:06:40.259Z,3.77
2023-03-18T14:09:33.442Z,4.00
2023-03-18T14:12:23.951Z,3.58
2023-03-18T14:15:14.347Z,3.12
2023-03-18T14:18:01.678Z,4.22
2023-03-18T14:20:53.650Z,6.45
2023-03-18T14:23:43.591Z,5.78
2023-03-18T14:26:31.809Z,4.03
2023-03-18T14:29:31.388Z,5.67
2023-03-18T14:32:36.713Z,5.15
2023-03-18T14:35:29.548Z,5.05
2023-03-18T14:38:22.517Z,6.83
2023-03-18T14:41:15.818Z,7.50
2023-03-18T14:44:21.624Z,4.00
2023-03-18T14:47:15.891Z,2.50
2023-03-18T14:50:10.925Z,5.15
2023-03-18T14:53:07.128Z,6.35
2023-03-18T14:55:57.270Z,5.60
2023-03-18T14:58:47.771Z,5.67
2023-03-18T15:01:40.374Z,4.17
2023-03-18T15:04:28.975Z,4.90
2023-03-18T15:07:16.178Z,6.60
2023-03-18T15:10:17.101Z,6.37
2023-03-18T15:13:10.947Z,3.85
2023-03-18T15:15:58.028Z,8.60
2023-03-18T15:18:45.339Z,4.37
2023-03-18T15:21:35.321Z,7.25
2023-03-18T15:24:25.847Z,4.87
2023-03-18T15:27:20.619Z,4.78
2023-03-18T15:30:11.789Z,4.17
2023-03-18T15:33:10.675Z,4.25
2023-03-18T15:36:00.635Z,4.83
2023-03-18T15:38:49.860Z,7.92
2023-03-18T15:41:37.158Z,5.67
2023-03-18T15:44:39.183Z,5.15
2023-03-18T15:47:32.052Z,8.33
2023-03-18T15:50:27.838Z,4.78
2023-03-18T15:53:26.492Z,4.47
2023-03-18T15:56:19.521Z,6.90
2023-03-18T15:59:18.631Z,8.63
2023-03-18T16:02:09.088Z,5.65
2023-03-18T16:05:10.772Z,5.40
2023-03-18T16:08:00.374Z,4.90
2023-03-18T16:10:49.230Z,5.05
2023-03-18T16:13:37.632Z,4.10
2023-03-18T16:16:30.010Z,5.17
2023-03-18T16:19:24.953Z,5.87
2023-03-18T16:22:12.580Z,3.55
2023-03-18T16:25:00.133Z,7.67
2023-03-18T16:27:50.021Z,6.22
2023-03-18T16:30:38.908Z,7.45
2023-03-18T16:33:26.592Z,6.15
2023-03-18T16:36:17.053Z,4.62
2023-03-18T16:39:07.654Z,6.25
2023-03-18T16:41:54.936Z,5.35
2023-03-18T16:44:41.952Z,4.37
2023-03-18T16:47:29.591Z,4.62
2023-03-18T16:50:22.371Z,6.08
2023-03-18T16:53:24.483Z,5.03
2023-03-18T16:56:21.119Z,7.22
2023-03-18T16:59:11.262Z,2.90
2023-03-18T17:01:58.450Z,6.47
2023-03-18T17:04:45.629Z,6.55
2023-03-18T17:07:34.445Z,3.67
2023-03-18T17:10:27.017Z,7.12
2023-03-18T17:13:22.243Z,9.40
2023-03-18T17:16:12.760Z,5.30
2023-03-18T17:19:00.005Z,7.92
2023-03-18T17:21:47.584Z,4.60
2023-03-18T17:24:34.986Z,5.47
2023-03-18T17:27:27.437Z,12.53
2023-03-18T17:30:23.006Z,8.40
2023-03-18T17:33:31.122Z,5.95
2023-03-18T17:36:18.317Z,5.08
2023-03-18T17:39:05.961Z,5.62
2023-03-18T17:41:53.336Z,4.05
2023-03-18T17:44:41.182Z,6.95
2023-03-18T17:47:28.429Z,6.72
2023-03-18T17:50:20.162Z,3.95
2023-03-18T17:53:07.531Z,3.72
2023-03-18T17:55:55.834Z,6.12
2023-03-18T17:58:48.112Z,4.62
2023-03-18T18:01:35.459Z,6.28
2023-03-18T18:04:23.440Z,7.72
2023-03-18T18:07:25.382Z,8.08
2023-03-18T18:10:15.358Z,7.05
2023-03-18T18:13:03.172Z,6.60
2023-03-18T18:15:51.276Z,4.60
2023-03-18T18:18:38.666Z,11.43
2023-03-18T18:21:26.931Z,10.20
2023-03-18T18:24:18.680Z,7.55
2023-03-18T18:27:06.629Z,7.40
2023-03-18T18:29:54.383Z,7.28
2023-03-18T18:32:41.973Z,6.00
2023-03-18T18:35:29.258Z,7.20
2023-03-18T18:38:16.700Z,6.03
2023-03-18T18:41:04.005Z,6.10
2023-03-18T18:43:50.854Z,6.72
2023-03-18T18:46:39.153Z,5.00
2023-03-18T18:49:26.423Z,10.63
2023-03-18T18:52:15.050Z,6.72
2023-03-18T18:55:02.358Z,7.97
2023-03-18T18:57:49.875Z,5.78
2023-03-18T19:00:37.207Z,4.28
2023-03-18T19:03:27.631Z,9.15
2023-03-18T19:06:32.530Z,8.63
2023-03-18T19:09:26.190Z,9.00
2023-03-18T19:12:15.714Z,10.82
2023-03-18T19:15:02.837Z,8.68
2023-03-18T19:17:49.861Z,8.30
2023-03-18T19:20:37.377Z,9.70
2023-03-18T19:23:27.833Z,6.05
2023-03-18T19:26:16.825Z,4.78
2023-03-18T19:29:04.190Z,4.92
2023-03-18T19:31:51.545Z,5.67
2023-03-18T19:34:38.997Z,9.25
2023-03-18T19:37:29.520Z,4.00
2023-03-18T19:40:22.882Z,4.70
2023-03-18T19:43:21.614Z,6.85
2023-03-18T19:46:24.196Z,6.17
2023-03-18T19:49:23.390Z,4.92
2023-03-18T19:52:25.620Z,4.25
2023-03-18T19:55:16.671Z,7.92
2023-03-18T19:58:03.993Z,9.38
2023-03-18T20:00:51.859Z,8.28
2023-03-18T20:03:38.822Z,8.38
2023-03-18T20:06:27.108Z,10.68
2023-03-18T20:09:15.308Z,7.80
2023-03-18T20:12:04.891Z,11.55
2023-03-18T20:14:52.148Z,5.80
2023-03-18T20:17:44.476Z,7.05
2023-03-18T20:20:33.586Z,6.30
2023-03-18T20:23:26.338Z,6.12
2023-03-18T20:26:13.909Z,6.75
2023-03-18T20:29:01.418Z,5.92
2023-03-18T20:31:48.869Z,8.45
2023-03-18T20:34:37.773Z,4.78
2023-03-18T20:37:32.933Z,8.55
2023-03-18T20:40:25.402Z,8.48
2023-03-18T20:43:17.623Z,4.58
2023-03-18T20:46:05.113Z,6.33
2023-03-18T20:48:53.146Z,7.30
2023-03-18T20:51:44.169Z,8.23
2023-03-18T20:54:32.449Z,4.17
2023-03-18T20:57:19.865Z,4.58
2023-03-18T21:00:08.440Z,9.55
2023-03-18T21:02:57.953Z,7.97
2023-03-18T21:05:46.262Z,6.97
2023-03-18T21:08:33.717Z,3.98
2023-03-18T21:11:24.232Z,6.50
2023-03-18T21:14:16.017Z,8.53
2023-03-18T21:17:04.238Z,3.77
2023-03-18T21:19:53.306Z,4.65
2023-03-18T21:22:40.704Z,3.83
2023-03-18T21:25:29.179Z,5.33
2023-03-18T21:28:18.533Z,5.92
2023-03-18T21:31:07.202Z,6.33
2023-03-18T21:33:55.281Z,9.95
2023-03-18T21:36:42.701Z,7.42
2023-03-18T21:39:30.741Z,6.15
2023-03-18T21:42:29.723Z,8.08
2023-03-18T21:45:20.251Z,5.65
2023-03-18T21:48:09.639Z,6.08
2023-03-18T21:50:56.063Z,7.10
2023-03-18T21:53:43.792Z,6.62
2023-03-18T21:56:31.109Z,6.50
2023-03-18T21:59:18.409Z,5.17
2023-03-18T22:02:08.644Z,10.60
2023-03-18T22:05:00.848Z,5.65
2023-03-18T22:07:48.320Z,12.25
2023-03-18T22:10:35.378Z,9.20
2023-03-18T22:13:25.380Z,8.73
2023-03-18T22:16:15.350Z,8.18
2023-03-18T22:19:02.372Z,7.30
2023-03-18T22:21:49.618Z,7.70
2023-03-18T22:24:37.135Z,8.83
2023-03-18T22:27:26.673Z,10.05
2023-03-18T22:30:14.386Z,9.60
2023-03-18T22:33:04.126Z,6.67
2023-03-18T22:35:51.480Z,8.00
2023-03-18T22:38:38.949Z,6.05
2023-03-18T22:41:31.170Z,6.72
2023-03-18T22:44:23.562Z,9.10
2023-03-18T22:47:19.825Z,6.30
2023-03-18T22:50:07.402Z,7.35
2023-03-18T22:53:00.792Z,9.25
2023-03-18T22:55:49.462Z,8.78
2023-03-18T22:58:37.022Z,7.62
2023-03-18T23:01:27.175Z,10.05
2023-03-18T23:04:14.235Z,5.58
2023-03-18T23:07:01.465Z,5.37
2023-03-18T23:09:56.544Z,8.15
2023-03-18T23:12:39.288Z,5.05
2023-03-18T23:15:26.560Z,5.40
2023-03-18T23:18:16.668Z,5.87
2023-03-18T23:21:03.920Z,8.45
2023-03-18T23:23:52.404Z,7.37
2023-03-18T23:26:39.306Z,5.28
2023-03-18T23:29:26.467Z,4.28
2023-03-18T23:32:14.958Z,13.40
2023-03-18T23:35:02.256Z,4.22
2023-03-18T23:37:49.382Z,12.65
2023-03-18T23:40:36.972Z,11.15
2023-03-18T23:43:24.386Z,5.85
2023-03-18T23:46:11.924Z,7.35
2023-03-18T23:48:59.050Z,8.25
2023-03-18T23:51:46.768Z,11.65
2023-03-18T23:54:34.594Z,5.87
2023-03-18T23:57:21.763Z,9.53
